createdAt,value
2022-11-07T00:00:21.304Z,7.93
2022-11-07T00:02:26.200Z,9.50
2022-11-07T00:04:29.600Z,6.00
2022-11-07T00:06:33.338Z,6.23
2022-11-07T00:08:36.477Z,5.93
2022-11-07T00:10:39.521Z,5.60
2022-11-07T00:12:43.032Z,5.97
2022-11-07T00:14:46.100Z,5.53
2022-11-07T00:16:50.969Z,4.30
2022-11-07T00:18:55.481Z,4.93
2022-11-07T00:21:02.306Z,4.60
2022-11-07T00:23:05.379Z,4.00
2022-11-07T00:25:09.534Z,3.70
2022-11-07T00:27:12.841Z,4.00
2022-11-07T00:29:17.240Z,4.20
2022-11-07T00:31:20.580Z,4.50
2022-11-07T00:33:23.910Z,4.20
2022-11-07T00:35:28.548Z,4.27
2022-11-07T00:37:31.718Z,4.10
2022-11-07T00:39:34.942Z,4.03
2022-11-07T00:41:38.383Z,4.40
2022-11-07T00:43:41.707Z,4.10
2022-11-07T00:45:44.804Z,3.53
2022-11-07T00:47:47.930Z,4.10
2022-11-07T00:49:51.015Z,4.00
2022-11-07T00:51:55.364Z,3.60
2022-11-07T00:53:58.672Z,3.73
2022-11-07T00:56:05.944Z,4.10
2022-11-07T00:58:13.870Z,4.70
2022-11-07T01:00:17.733Z,5.07
2022-11-07T01:02:20.864Z,4.10
2022-11-07T01:04:41.227Z,5.23
2022-11-07T01:06:45.417Z,4.93
2022-11-07T01:08:49.838Z,5.53
2022-11-07T01:10:52.977Z,5.20
2022-11-07T01:12:56.030Z,4.00
2022-11-07T01:14:59.057Z,3.10
2022-11-07T01:17:02.087Z,3.10
2022-11-07T01:19:05.651Z,3.97
2022-11-07T01:21:15.131Z,3.80
2022-11-07T01:23:20.348Z,4.07
2022-11-07T01:25:24.930Z,3.80
2022-11-07T01:27:28.073Z,3.97
2022-11-07T01:29:31.391Z,4.70
2022-11-07T01:31:34.426Z,2.97
2022-11-07T01:33:38.508Z,2.67
2022-11-07T01:35:42.134Z,2.87
2022-11-07T01:37:45.111Z,3.03
2022-11-07T01:39:48.102Z,2.83
2022-11-07T01:41:52.701Z,2.70
2022-11-07T01:43:58.790Z,2.47
2022-11-07T01:46:01.804Z,3.07
2022-11-07T01:48:04.921Z,2.53
2022-11-07T01:50:08.916Z,2.50
2022-11-07T01:52:15.706Z,2.30
2022-11-07T01:54:21.484Z,2.40
2022-11-07T01:56:27.785Z,2.57
2022-11-07T01:58:32.202Z,2.50
2022-11-07T02:00:35.891Z,2.00
2022-11-07T02:02:39.584Z,2.70
2022-11-07T02:04:42.678Z,2.90
2022-11-07T02:06:48.195Z,2.30
2022-11-07T02:08:51.877Z,2.80
2022-11-07T02:10:55.169Z,2.40
2022-11-07T02:12:59.371Z,2.30
2022-11-07T02:15:03.841Z,2.20
2022-11-07T02:17:06.822Z,1.83
2022-11-07T02:19:21.453Z,2.30
2022-11-07T02:21:31.366Z,2.00
2022-11-07T02:23:37.713Z,2.07
2022-11-07T02:25:42.233Z,1.90
2022-11-07T02:27:47.695Z,1.97
2022-11-07T02:29:53.261Z,2.33
2022-11-07T02:32:06.621Z,1.70
2022-11-07T02:34:09.715Z,2.27
2022-11-07T02:36:16.886Z,2.00
2022-11-07T02:38:21.956Z,3.30
2022-11-07T02:40:25.035Z,3.47
2022-11-07T02:42:43.574Z,3.10
2022-11-07T02:44:46.751Z,2.87
2022-11-07T02:46:49.842Z,3.27
2022-11-07T02:48:55.598Z,3.30
2022-11-07T02:50:58.835Z,3.23
2022-11-07T02:53:04.721Z,4.03
2022-11-07T02:55:09.239Z,3.73
2022-11-07T02:57:12.790Z,4.10
2022-11-07T02:59:17.137Z,4.80
2022-11-07T03:01:20.691Z,4.50
2022-11-07T03:03:23.839Z,4.60
2022-11-07T03:05:26.803Z,4.90
2022-11-07T03:07:29.749Z,4.70
2022-11-07T03:09:32.708Z,4.80
2022-11-07T03:11:35.672Z,5.30
2022-11-07T03:13:38.812Z,4.87
2022-11-07T03:15:43.156Z,5.20
2022-11-07T03:17:46.126Z,5.33
2022-11-07T03:19:49.216Z,5.03
2022-11-07T03:21:52.583Z,4.80
2022-11-07T03:23:55.508Z,5.30
2022-11-07T03:25:58.468Z,5.50
2022-11-07T03:28:01.450Z,4.33
2022-11-07T03:30:05.097Z,5.00
2022-11-07T03:32:09.459Z,4.53
2022-11-07T03:34:12.612Z,5.07
2022-11-07T03:36:15.630Z,4.00
2022-11-07T03:38:18.579Z,3.93
2022-11-07T03:40:21.504Z,4.70
2022-11-07T03:42:24.826Z,4.50
2022-11-07T03:44:27.736Z,5.00
2022-11-07T03:46:31.041Z,4.93
2022-11-07T03:48:35.449Z,4.23
2022-11-07T03:50:38.694Z,7.87
2022-11-07T03:52:41.810Z,7.00
2022-11-07T03:54:44.802Z,6.00
2022-11-07T03:56:47.774Z,5.80
2022-11-07T03:58:51.034Z,6.37
2022-11-07T04:00:54.171Z,5.93
2022-11-07T04:02:57.231Z,6.17
2022-11-07T04:05:01.695Z,5.97
2022-11-07T04:07:04.742Z,5.50
2022-11-07T04:09:07.850Z,5.60
2022-11-07T04:11:31.664Z,5.63
2022-11-07T04:13:52.556Z,5.63
2022-11-07T04:16:17.426Z,4.87
2022-11-07T04:18:21.021Z,5.43
2022-11-07T04:20:25.322Z,5.80
2022-11-07T04:22:28.390Z,5.63
2022-11-07T04:24:31.481Z,6.00
2022-11-07T04:26:52.249Z,5.70
2022-11-07T04:28:55.208Z,5.37
2022-11-07T04:30:58.260Z,6.20
2022-11-07T04:33:02.626Z,8.00
2022-11-07T04:35:06.365Z,8.40
2022-11-07T04:37:10.670Z,11.97
2022-11-07T04:39:13.743Z,10.03
2022-11-07T04:41:20.877Z,12.20
2022-11-07T04:43:24.421Z,10.60
2022-11-07T04:45:27.333Z,9.10
2022-11-07T04:47:30.436Z,7.80
2022-11-07T04:49:33.412Z,7.70
2022-11-07T04:51:42.917Z,6.47
2022-11-07T04:53:47.407Z,6.10
2022-11-07T04:55:50.416Z,7.40
2022-11-07T04:57:54.137Z,8.63
2022-11-07T04:59:57.164Z,6.00
2022-11-07T05:02:01.840Z,7.90
2022-11-07T05:04:05.231Z,7.63
2022-11-07T05:06:08.326Z,6.57
2022-11-07T05:08:11.670Z,6.97
2022-11-07T05:10:20.038Z,5.40
2022-11-07T05:12:23.059Z,6.13
2022-11-07T05:14:26.076Z,7.23
2022-11-07T05:16:30.308Z,8.20
2022-11-07T05:18:33.364Z,7.13
2022-11-07T05:20:38.420Z,7.90
2022-11-07T05:22:59.520Z,6.10
2022-11-07T05:25:02.498Z,6.27
2022-11-07T05:27:08.431Z,6.57
2022-11-07T05:29:11.994Z,6.10
2022-11-07T05:31:16.455Z,5.87
2022-11-07T05:33:20.263Z,6.10
2022-11-07T05:35:23.322Z,7.33
2022-11-07T05:37:26.379Z,7.13
2022-11-07T05:39:29.633Z,7.07
2022-11-07T05:41:32.627Z,9.20
2022-11-07T05:43:38.099Z,7.60
2022-11-07T05:45:41.361Z,7.17
2022-11-07T05:47:44.441Z,6.73
2022-11-07T05:49:47.637Z,6.70
2022-11-07T05:51:50.725Z,7.60
2022-11-07T05:53:54.107Z,8.20
2022-11-07T05:55:57.293Z,6.20
2022-11-07T05:58:05.865Z,5.80
2022-11-07T06:00:13.215Z,6.63
2022-11-07T06:02:16.380Z,4.77
2022-11-07T06:04:19.491Z,5.90
2022-11-07T06:06:22.681Z,5.57
2022-11-07T06:08:25.972Z,5.87
2022-11-07T06:10:29.055Z,5.63
2022-11-07T06:12:32.090Z,6.37
2022-11-07T06:14:35.025Z,7.10
2022-11-07T06:16:39.530Z,6.37
2022-11-07T06:18:42.538Z,6.50
2022-11-07T06:20:45.734Z,6.30
2022-11-07T06:22:49.028Z,7.30
2022-11-07T06:24:52.086Z,6.20
2022-11-07T06:26:55.129Z,5.20
2022-11-07T06:28:58.101Z,4.23
2022-11-07T06:31:01.390Z,4.87
2022-11-07T06:33:07.448Z,4.63
2022-11-07T06:35:10.812Z,4.80
2022-11-07T06:37:14.138Z,3.30
2022-11-07T06:39:17.691Z,2.83
2022-11-07T06:41:20.833Z,2.63
2022-11-07T06:43:24.105Z,2.70
2022-11-07T06:45:27.091Z,2.67
2022-11-07T06:47:30.077Z,2.67
2022-11-07T06:49:34.613Z,4.00
2022-11-07T06:51:37.704Z,3.80
2022-11-07T06:53:41.137Z,2.80
2022-11-07T06:55:44.190Z,2.87
2022-11-07T06:57:47.217Z,2.20
2022-11-07T06:59:51.853Z,2.30
2022-11-07T07:01:55.323Z,2.30
2022-11-07T07:04:00.134Z,1.93
2022-11-07T07:06:06.132Z,2.00
2022-11-07T07:08:10.686Z,3.70
2022-11-07T07:10:14.917Z,2.00
2022-11-07T07:12:17.929Z,2.10
2022-11-07T07:14:20.892Z,6.57
2022-11-07T07:16:23.871Z,3.70
2022-11-07T07:18:27.757Z,3.87
2022-11-07T07:20:31.208Z,4.80
2022-11-07T07:22:35.752Z,5.07
2022-11-07T07:24:38.778Z,5.00
2022-11-07T07:26:41.756Z,7.80
2022-11-07T07:28:45.368Z,4.87
2022-11-07T07:30:51.848Z,6.27
2022-11-07T07:32:55.323Z,20.10
2022-11-07T07:34:58.412Z,5.37
2022-11-07T07:37:01.528Z,5.43
2022-11-07T07:39:06.325Z,5.10
2022-11-07T07:41:09.642Z,6.77
2022-11-07T07:43:12.798Z,8.17
2022-11-07T07:45:16.673Z,5.30
2022-11-07T07:47:19.722Z,6.30
2022-11-07T07:49:22.660Z,5.30
2022-11-07T07:51:25.693Z,6.00
2022-11-07T07:53:28.709Z,11.70
2022-11-07T07:55:33.154Z,24.10
2022-11-07T07:57:40.109Z,20.07
2022-11-07T07:59:43.025Z,8.10
2022-11-07T08:01:48.774Z,11.73
2022-11-07T08:04:02.745Z,8.47
2022-11-07T08:06:06.784Z,6.80
2022-11-07T08:08:10.025Z,6.60
2022-11-07T08:10:39.664Z,7.40
2022-11-07T08:12:37.474Z,6.80
2022-11-07T08:14:40.472Z,6.37
2022-11-07T08:16:43.540Z,5.17
2022-11-07T08:18:46.536Z,4.40
2022-11-07T08:20:50.975Z,3.47
2022-11-07T08:23:01.369Z,2.20
2022-11-07T08:25:05.047Z,2.60
2022-11-07T08:27:08.590Z,2.07
2022-11-07T08:29:13.086Z,1.93
2022-11-07T08:31:16.503Z,2.97
2022-11-07T08:33:19.945Z,1.90
2022-11-07T08:35:23.053Z,2.00
2022-11-07T08:37:26.318Z,2.00
2022-11-07T08:39:29.469Z,2.13
2022-11-07T08:41:32.599Z,1.70
2022-11-07T08:43:36.248Z,1.77
2022-11-07T08:45:42.525Z,2.17
2022-11-07T08:47:45.996Z,2.00
2022-11-07T08:49:49.022Z,1.70
2022-11-07T08:51:52.245Z,2.20
2022-11-07T08:53:55.407Z,1.90
2022-11-07T08:56:02.692Z,1.90
2022-11-07T08:58:07.226Z,1.57
2022-11-07T09:00:16.862Z,1.80
2022-11-07T09:04:45.013Z,3.43
2022-11-07T09:06:48.161Z,2.23
2022-11-07T09:08:51.618Z,1.80
2022-11-07T09:10:54.841Z,3.50
2022-11-07T09:12:58.013Z,3.30
2022-11-07T09:15:01.068Z,2.10
2022-11-07T09:17:04.166Z,1.90
2022-11-07T09:19:08.701Z,1.70
2022-11-07T09:21:12.100Z,1.60
2022-11-07T09:23:15.445Z,1.70
2022-11-07T09:25:19.292Z,1.80
2022-11-07T09:27:22.292Z,2.07
2022-11-07T09:29:25.332Z,1.73
2022-11-07T09:31:28.375Z,1.60
2022-11-07T09:33:31.858Z,2.20
2022-11-07T09:35:36.314Z,1.77
2022-11-07T09:37:39.834Z,1.80
2022-11-07T09:39:42.810Z,1.70
2022-11-07T09:41:52.979Z,1.80
2022-11-07T09:44:07.454Z,1.70
2022-11-07T09:46:23.161Z,1.80
2022-11-07T09:48:27.466Z,1.60
2022-11-07T09:50:33.055Z,1.90
2022-11-07T09:52:41.981Z,1.60
2022-11-07T09:54:47.202Z,1.57
2022-11-07T09:56:50.396Z,2.00
2022-11-07T09:58:54.691Z,1.80
2022-11-07T10:01:00.921Z,1.70
2022-11-07T10:03:04.270Z,1.90
2022-11-07T10:05:10.842Z,2.00
2022-11-07T10:07:23.943Z,1.87
2022-11-07T10:09:36.071Z,1.70
2022-11-07T10:11:42.405Z,1.87
2022-11-07T10:13:53.896Z,2.00
2022-11-07T10:16:05.365Z,1.70
2022-11-07T10:18:16.771Z,3.17
2022-11-07T10:20:30.838Z,2.03
2022-11-07T10:22:44.199Z,1.97
2022-11-07T10:24:59.869Z,1.60
2022-11-07T10:27:03.292Z,1.88
2022-11-07T10:29:13.541Z,2.23
2022-11-07T10:31:16.677Z,1.80
2022-11-07T10:33:33.660Z,1.57
2022-11-07T10:35:39.818Z,1.70
2022-11-07T10:37:42.917Z,1.80
2022-11-07T10:39:46.074Z,1.70
2022-11-07T10:41:57.109Z,1.60
2022-11-07T10:44:01.901Z,1.70
2022-11-07T10:46:13.073Z,2.07
2022-11-07T10:48:16.477Z,1.50
2022-11-07T10:50:22.309Z,2.00
2022-11-07T10:52:25.874Z,2.37
2022-11-07T10:54:30.143Z,1.97
2022-11-07T10:56:45.054Z,1.70
2022-11-07T10:58:49.633Z,2.00
2022-11-07T11:01:02.291Z,2.03
2022-11-07T11:03:16.418Z,1.90
2022-11-07T11:05:25.875Z,1.60
2022-11-07T11:07:35.991Z,1.50
2022-11-07T11:09:39.253Z,1.60
2022-11-07T11:11:44.161Z,1.60
2022-11-07T11:13:47.362Z,2.10
2022-11-07T11:15:52.014Z,1.80
2022-11-07T11:18:00.631Z,1.87
2022-11-07T11:20:03.914Z,1.40
2022-11-07T11:22:13.225Z,1.70
2022-11-07T11:24:24.135Z,1.83
2022-11-07T11:26:31.145Z,1.83
2022-11-07T11:28:37.048Z,1.70
2022-11-07T11:30:41.023Z,1.93
2022-11-07T11:32:51.507Z,1.87
2022-11-07T11:35:03.817Z,2.03
2022-11-07T11:37:10.040Z,1.83
2022-11-07T11:39:26.578Z,1.70
2022-11-07T11:41:34.119Z,1.70
2022-11-07T11:43:43.026Z,1.70
2022-11-07T11:45:53.983Z,2.07
2022-11-07T11:48:01.478Z,2.03
2022-11-07T11:50:06.799Z,1.80
2022-11-07T11:52:15.516Z,1.93
2022-11-07T11:54:18.626Z,1.80
2022-11-07T11:56:40.008Z,1.70
2022-11-07T11:58:45.908Z,1.67
2022-11-07T12:00:54.021Z,1.70
2022-11-07T12:03:13.384Z,2.00
2022-11-07T12:05:56.669Z,1.73
2022-11-07T12:08:13.032Z,1.90
2022-11-07T12:10:20.743Z,1.60
2022-11-07T12:12:29.938Z,2.00
2022-11-07T12:15:03.655Z,1.93
2022-11-07T12:17:10.856Z,1.80
2022-11-07T12:19:21.367Z,1.70
2022-11-07T12:21:32.673Z,1.60
2022-11-07T12:23:53.860Z,1.97
2022-11-07T12:26:04.314Z,1.90
2022-11-07T12:28:19.583Z,1.90
2022-11-07T12:30:24.874Z,1.53
2022-11-07T12:32:34.030Z,1.47
2022-11-07T12:34:51.461Z,2.30
2022-11-07T12:37:06.994Z,1.30
2022-11-07T12:39:33.193Z,1.70
2022-11-07T12:41:41.175Z,1.90
2022-11-07T12:43:53.504Z,1.33
2022-11-07T12:45:59.376Z,1.80
2022-11-07T12:48:15.296Z,1.43
2022-11-07T12:50:26.571Z,6.70
2022-11-07T12:52:39.396Z,3.00
2022-11-07T12:54:48.121Z,5.67
2022-11-07T12:56:52.137Z,1.67
2022-11-07T12:58:55.578Z,1.40
2022-11-07T13:00:59.286Z,1.80
2022-11-07T13:03:19.965Z,1.80
2022-11-07T13:05:37.618Z,1.93
2022-11-07T13:07:43.466Z,1.40
2022-11-07T13:09:51.839Z,1.70
2022-11-07T13:12:00.548Z,1.40
2022-11-07T13:14:25.106Z,1.57
2022-11-07T13:16:29.866Z,1.77
2022-11-07T13:18:32.923Z,1.87
2022-11-07T13:20:37.276Z,1.57
2022-11-07T13:22:41.310Z,1.80
2022-11-07T13:24:52.915Z,1.23
2022-11-07T13:26:56.101Z,1.50
2022-11-07T13:29:00.231Z,1.53
2022-11-07T13:31:07.627Z,1.47
2022-11-07T13:33:26.326Z,1.37
2022-11-07T13:35:31.170Z,1.30
2022-11-07T13:37:38.369Z,1.37
2022-11-07T13:39:41.695Z,1.60
2022-11-07T13:41:47.055Z,1.40
2022-11-07T13:43:55.528Z,1.03
2022-11-07T13:46:00.353Z,1.60
2022-11-07T13:48:06.754Z,1.80
2022-11-07T13:50:18.181Z,1.33
2022-11-07T13:52:24.446Z,1.27
2022-11-07T13:54:32.421Z,1.20
2022-11-07T13:56:41.361Z,1.37
2022-11-07T13:58:44.778Z,1.17
2022-11-07T14:00:48.025Z,1.43
2022-11-07T14:02:53.725Z,1.60
2022-11-07T14:05:17.845Z,1.30
2022-11-07T14:07:26.138Z,1.30
2022-11-07T14:09:32.783Z,1.40
2022-11-07T14:11:36.303Z,1.20
2022-11-07T14:13:41.662Z,1.47
2022-11-07T14:15:46.875Z,1.40
2022-11-07T14:17:50.041Z,1.50
2022-11-07T14:19:55.031Z,2.00
2022-11-07T14:21:58.106Z,1.43
2022-11-07T14:24:01.453Z,1.70
2022-11-07T14:26:18.573Z,6.30
2022-11-07T14:28:21.649Z,8.40
2022-11-07T14:30:25.601Z,3.53
2022-11-07T14:32:32.001Z,1.80
2022-11-07T14:34:36.744Z,1.53
2022-11-07T14:36:47.973Z,1.37
2022-11-07T14:38:52.591Z,1.67
2022-11-07T14:40:57.234Z,1.73
2022-11-07T14:43:01.732Z,1.50
2022-11-07T14:45:06.468Z,2.10
2022-11-07T14:47:15.470Z,1.50
2022-11-07T14:49:24.604Z,1.80
2022-11-07T14:51:29.127Z,1.53
2022-11-07T14:53:34.223Z,1.47
2022-11-07T14:55:38.873Z,1.97
2022-11-07T14:57:42.022Z,1.70
2022-11-07T14:59:46.587Z,1.63
2022-11-07T15:01:54.765Z,2.20
2022-11-07T15:04:00.309Z,1.93
2022-11-07T15:06:03.919Z,1.53
2022-11-07T15:08:07.292Z,1.63
2022-11-07T15:10:20.581Z,1.77
2022-11-07T15:12:28.686Z,1.63
2022-11-07T15:14:33.520Z,1.70
2022-11-07T15:16:48.062Z,1.40
2022-11-07T15:18:58.738Z,1.50
2022-11-07T15:21:03.051Z,1.60
2022-11-07T15:23:08.007Z,1.80
2022-11-07T15:25:25.656Z,1.83
2022-11-07T15:27:36.033Z,2.13
2022-11-07T15:29:39.069Z,1.80
2022-11-07T15:31:49.368Z,2.00
2022-11-07T15:33:52.989Z,2.10
2022-11-07T15:35:57.375Z,1.87
2022-11-07T15:38:02.590Z,2.17
2022-11-07T15:40:14.573Z,2.20
2022-11-07T15:42:17.675Z,1.90
2022-11-07T15:44:20.689Z,2.17
2022-11-07T15:46:26.332Z,4.27
2022-11-07T15:48:38.251Z,2.30
2022-11-07T15:50:43.403Z,2.57
2022-11-07T15:52:47.068Z,1.90
2022-11-07T15:54:50.272Z,2.20
2022-11-07T15:56:58.337Z,2.40
2022-11-07T15:59:02.017Z,2.73
2022-11-07T16:01:05.566Z,2.27
2022-11-07T16:03:13.894Z,2.07
2022-11-07T16:05:18.768Z,3.80
2022-11-07T16:07:22.321Z,2.57
2022-11-07T16:09:27.153Z,2.73
2022-11-07T16:11:30.200Z,3.33
2022-11-07T16:13:33.530Z,3.57
2022-11-07T16:15:36.682Z,2.97
2022-11-07T16:17:40.035Z,3.70
2022-11-07T16:19:43.292Z,3.60
2022-11-07T16:21:48.464Z,5.47
2022-11-07T16:23:52.585Z,6.60
2022-11-07T16:25:55.970Z,2.90
2022-11-07T16:28:00.953Z,25.70
2022-11-07T16:30:04.637Z,14.43
2022-11-07T16:32:08.017Z,7.50
2022-11-07T16:34:11.762Z,6.93
2022-11-07T16:36:20.766Z,9.53
2022-11-07T16:38:26.182Z,7.50
2022-11-07T16:40:29.349Z,5.93
2022-11-07T16:42:32.618Z,5.10
2022-11-07T16:44:35.922Z,4.70
2022-11-07T16:46:39.113Z,4.90
2022-11-07T16:48:42.948Z,6.17
2022-11-07T16:50:46.119Z,8.10
2022-11-07T16:52:49.164Z,8.03
2022-11-07T16:54:54.053Z,6.90
2022-11-07T16:56:57.269Z,10.37
2022-11-07T16:59:00.416Z,11.33
2022-11-07T17:01:06.662Z,8.90
2022-11-07T17:03:12.655Z,18.57
2022-11-07T17:05:15.844Z,15.27
2022-11-07T17:07:20.045Z,15.00
2022-11-07T17:09:24.711Z,14.37
2022-11-07T17:11:29.268Z,20.30
2022-11-07T17:13:32.616Z,49.93
2022-11-07T17:15:35.796Z,40.00
2022-11-07T17:17:39.161Z,38.77
2022-11-07T17:19:42.534Z,35.10
2022-11-07T17:21:49.383Z,26.10
2022-11-07T17:23:53.271Z,28.53
2022-11-07T17:25:57.109Z,12.23
2022-11-07T17:28:01.718Z,11.03
2022-11-07T17:30:08.552Z,9.57
2022-11-07T17:32:11.965Z,11.17
2022-11-07T17:34:15.230Z,10.30
2022-11-07T17:36:25.583Z,13.27
2022-11-07T17:38:28.677Z,12.60
2022-11-07T17:40:33.178Z,10.20
2022-11-07T17:42:38.191Z,10.60
2022-11-07T17:44:42.709Z,10.10
2022-11-07T17:46:47.840Z,9.37
2022-11-07T17:48:50.897Z,8.70
2022-11-07T17:50:54.025Z,6.10
2022-11-07T17:52:57.257Z,6.30
2022-11-07T17:55:00.297Z,5.50
2022-11-07T17:57:08.790Z,5.27
2022-11-07T17:59:14.214Z,5.80
2022-11-07T18:01:21.257Z,8.27
2022-11-07T18:03:24.766Z,7.60
2022-11-07T18:05:33.449Z,10.80
2022-11-07T18:07:40.701Z,14.00
2022-11-07T18:09:44.298Z,12.23
2022-11-07T18:11:47.544Z,10.70
2022-11-07T18:13:51.302Z,13.10
2022-11-07T18:46:16.198Z,15.40
2022-11-07T18:48:34.780Z,13.73
2022-11-07T18:50:45.969Z,22.43
2022-11-07T18:52:53.713Z,16.23
2022-11-07T18:55:02.474Z,15.33
2022-11-07T18:57:06.224Z,15.37
2022-11-07T18:59:10.058Z,14.90
2022-11-07T19:01:16.335Z,12.80
2022-11-07T19:03:20.393Z,15.63
2022-11-07T19:05:23.597Z,17.80
2022-11-07T19:07:27.161Z,13.97
2022-11-07T19:09:32.185Z,13.70
2022-11-07T19:11:35.626Z,13.70
2022-11-07T19:13:40.931Z,13.57
2022-11-07T19:15:44.559Z,14.47
2022-11-07T19:17:49.251Z,22.93
2022-11-07T19:19:53.898Z,17.97
2022-11-07T19:21:57.085Z,19.20
2022-11-07T19:24:00.656Z,20.77
2022-11-07T19:26:03.838Z,18.90
2022-11-07T19:28:07.208Z,17.50
2022-11-07T19:30:11.856Z,21.97
2022-11-07T19:32:15.681Z,33.70
2022-11-07T19:34:21.054Z,31.93
2022-11-07T19:36:24.523Z,25.70
2022-11-07T19:38:27.973Z,20.93
2022-11-07T19:40:31.899Z,15.73
2022-11-07T19:42:34.995Z,16.20
2022-11-07T19:44:40.772Z,13.73
2022-11-07T19:46:46.386Z,11.60
2022-11-07T19:48:51.230Z,10.07
2022-11-07T19:50:55.674Z,10.30
2022-11-07T19:52:58.778Z,9.80
2022-11-07T19:55:02.172Z,9.97
2022-11-07T19:57:06.180Z,10.00
2022-11-07T19:59:10.300Z,10.50
2022-11-07T20:01:15.307Z,10.50
2022-11-07T20:03:18.789Z,12.47
2022-11-07T20:05:25.040Z,11.57
2022-11-07T20:07:29.570Z,13.33
2022-11-07T20:09:33.810Z,14.30
2022-11-07T20:11:37.848Z,12.90
2022-11-07T20:13:41.173Z,11.47
2022-11-07T20:15:44.471Z,11.50
2022-11-07T20:17:47.557Z,12.27
2022-11-07T20:19:50.704Z,10.00
2022-11-07T20:21:53.781Z,10.50
2022-11-07T20:23:59.572Z,11.13
2022-11-07T20:26:07.374Z,11.60
2022-11-07T20:28:10.672Z,11.27
2022-11-07T20:30:14.637Z,11.10
2022-11-07T20:32:17.792Z,11.00
2022-11-07T20:34:21.074Z,9.73
2022-11-07T20:36:24.206Z,10.50
2022-11-07T20:38:28.238Z,11.60
2022-11-07T20:40:32.944Z,10.43
2022-11-07T20:42:36.766Z,10.03
2022-11-07T20:44:41.100Z,10.20
2022-11-07T20:46:46.089Z,9.60
2022-11-07T20:48:49.540Z,9.50
2022-11-07T20:50:53.232Z,9.33
2022-11-07T20:52:58.998Z,10.63
2022-11-07T20:55:03.647Z,11.03
2022-11-07T20:57:09.328Z,10.00
2022-11-07T20:59:12.510Z,11.77
2022-11-07T21:01:17.371Z,11.90
2022-11-07T21:03:20.913Z,14.60
2022-11-07T21:05:24.287Z,11.57
2022-11-07T21:07:27.371Z,15.43
2022-11-07T21:09:30.474Z,13.23
2022-11-07T21:11:33.997Z,13.10
2022-11-07T21:13:49.635Z,13.73
2022-11-07T21:15:56.332Z,14.40
2022-11-07T21:18:00.720Z,13.00
2022-11-07T21:20:04.756Z,11.77
2022-11-07T21:22:07.940Z,12.67
2022-11-07T21:24:11.545Z,12.60
2022-11-07T21:26:17.380Z,16.63
2022-11-07T21:28:20.531Z,14.50
2022-11-07T21:30:25.297Z,15.00
2022-11-07T21:32:28.475Z,13.83
2022-11-07T21:34:37.234Z,13.30
2022-11-07T21:36:40.398Z,12.43
2022-11-07T21:38:44.839Z,13.40
2022-11-07T21:40:48.196Z,12.97
2022-11-07T21:42:54.828Z,13.60
2022-11-07T21:44:57.933Z,14.67
2022-11-07T21:47:02.888Z,14.40
2022-11-07T21:49:06.200Z,13.30
2022-11-07T21:51:11.334Z,12.03
2022-11-07T21:53:14.689Z,12.03
2022-11-07T21:55:18.838Z,12.97
2022-11-07T21:57:23.735Z,13.50
2022-11-07T21:59:27.157Z,19.73
2022-11-07T22:01:35.280Z,15.87
2022-11-07T22:06:06.004Z,12.50
2022-11-07T22:08:09.386Z,11.80
2022-11-07T22:10:13.622Z,11.73
2022-11-07T22:12:17.302Z,11.90
2022-11-07T22:14:22.825Z,11.90
2022-11-07T22:16:26.150Z,10.70
2022-11-07T22:18:29.440Z,11.07
2022-11-07T22:20:34.671Z,10.20
2022-11-07T22:22:37.840Z,10.90
2022-11-07T22:24:40.976Z,11.37
2022-11-07T22:26:44.443Z,11.70
2022-11-07T22:28:49.034Z,10.37
2022-11-07T22:30:52.065Z,10.83
2022-11-07T22:32:55.386Z,10.83
2022-11-07T22:34:58.931Z,11.00
2022-11-07T22:37:03.396Z,11.10
2022-11-07T22:39:06.788Z,11.27
2022-11-07T22:41:12.066Z,11.30
2022-11-07T22:43:15.481Z,11.57
2022-11-07T22:45:19.105Z,12.17
2022-11-07T22:47:22.339Z,10.93
2022-11-07T22:49:25.430Z,9.70
2022-11-07T22:51:31.212Z,11.80
2022-11-07T22:53:36.335Z,9.80
2022-11-07T22:55:40.202Z,9.43
2022-11-07T22:57:43.278Z,10.30
2022-11-07T22:59:46.230Z,9.93
2022-11-07T23:01:49.452Z,9.10
2022-11-07T23:03:52.858Z,8.77
2022-11-07T23:05:55.927Z,8.17
2022-11-07T23:07:58.984Z,9.23
2022-11-07T23:10:03.523Z,9.10
2022-11-07T23:12:06.694Z,8.60
2022-11-07T23:14:12.554Z,8.37
2022-11-07T23:16:23.065Z,9.17
2022-11-07T23:18:26.147Z,7.93
2022-11-07T23:20:46.856Z,8.33
2022-11-07T23:22:49.848Z,8.33
2022-11-07T23:24:53.001Z,7.87
2022-11-07T23:26:57.597Z,8.52
2022-11-07T23:29:04.587Z,7.50
2022-11-07T23:31:11.279Z,7.70
2022-11-07T23:33:14.637Z,7.13
2022-11-07T23:35:17.880Z,7.60
2022-11-07T23:37:21.188Z,7.70
2022-11-07T23:39:25.947Z,7.00
2022-11-07T23:41:29.006Z,7.20
2022-11-07T23:43:34.692Z,7.50
2022-11-07T23:45:55.233Z,7.93
2022-11-07T23:48:18.155Z,6.60
2022-11-07T23:50:39.282Z,6.50
2022-11-07T23:52:42.368Z,6.70
2022-11-07T23:55:03.147Z,6.60
2022-11-07T23:57:06.199Z,7.57
2022-11-07T23:59:28.379Z,6.80
